sensor_id;sensor_type;location;lat;lon;timestamp;P1;durP1;ratioP1;P2;durP2;ratioP2
2320;SDS011;15376;48.540;9.268;2023-02-01T00:01:29;8.00;;;5.77;;
2320;SDS011;15376;48.540;9.268;2023-02-01T00:03:54;4.40;;;4.00;;
2320;SDS011;15376;48.540;9.268;2023-02-01T00:06:20;5.13;;;4.63;;
2320;SDS011;15376;48.540;9.268;2023-02-01T00:08:45;5.13;;;4.63;;
2320;SDS011;15376;48.540;9.268;2023-02-01T00:11:11;5.70;;;4.37;;
2320;SDS011;15376;48.540;9.268;2023-02-01T00:13:38;6.17;;;4.83;;
2320;SDS011;15376;48.540;9.268;2023-02-01T00:16:06;6.47;;;4.30;;
2320;SDS011;15376;48.540;9.268;2023-02-01T00:18:31;6.13;;;4.93;;
2320;SDS011;15376;48.540;9.268;2023-02-01T00:20:57;4.47;;;4.07;;
2320;SDS011;15376;48.540;9.268;2023-02-01T00:23:22;4.53;;;4.10;;
2320;SDS011;15376;48.540;9.268;2023-02-01T00:25:48;4.50;;;4.10;;
2320;SDS011;15376;48.540;9.268;2023-02-01T00:28:13;4.87;;;4.03;;
2320;SDS011;15376;48.540;9.268;2023-02-01T00:30:38;4.40;;;4.00;;
2320;SDS011;15376;48.540;9.268;2023-02-01T00:33:04;5.60;;;3.90;;
2320;SDS011;15376;48.540;9.268;2023-02-01T00:35:29;6.40;;;5.83;;
2320;SDS011;15376;48.540;9.268;2023-02-01T00:37:55;4.07;;;3.67;;
2320;SDS011;15376;48.540;9.268;2023-02-01T00:40:23;4.37;;;3.97;;
2320;SDS011;15376;48.540;9.268;2023-02-01T00:42:49;5.00;;;3.93;;
2320;SDS011;15376;48.540;9.268;2023-02-01T00:45:14;4.97;;;4.43;;
2320;SDS011;15376;48.540;9.268;2023-02-01T00:47:39;4.93;;;4.30;;
2320;SDS011;15376;48.540;9.268;2023-02-01T00:50:05;4.60;;;3.80;;
2320;SDS011;15376;48.540;9.268;2023-02-01T00:52:30;5.10;;;4.20;;
2320;SDS011;15376;48.540;9.268;2023-02-01T00:54:56;7.37;;;4.80;;
2320;SDS011;15376;48.540;9.268;2023-02-01T00:57:21;6.30;;;4.27;;
2320;SDS011;15376;48.540;9.268;2023-02-01T00:59:46;7.63;;;3.60;;
2320;SDS011;15376;48.540;9.268;2023-02-01T01:02:12;4.10;;;3.47;;
2320;SDS011;15376;48.540;9.268;2023-02-01T01:04:39;4.27;;;3.57;;
2320;SDS011;15376;48.540;9.268;2023-02-01T01:07:04;7.20;;;5.20;;
2320;SDS011;15376;48.540;9.268;2023-02-01T01:09:30;4.90;;;3.70;;
2320;SDS011;15376;48.540;9.268;2023-02-01T01:11:55;3.37;;;3.07;;
2320;SDS011;15376;48.540;9.268;2023-02-01T01:14:20;3.40;;;3.10;;
2320;SDS011;15376;48.540;9.268;2023-02-01T01:16:46;3.53;;;3.23;;
2320;SDS011;15376;48.540;9.268;2023-02-01T01:19:11;3.30;;;3.00;;
2320;SDS011;15376;48.540;9.268;2023-02-01T01:21:36;3.70;;;3.33;;
2320;SDS011;15376;48.540;9.268;2023-02-01T01:24:02;3.40;;;3.10;;
2320;SDS011;15376;48.540;9.268;2023-02-01T01:26:28;3.53;;;3.23;;
2320;SDS011;15376;48.540;9.268;2023-02-01T01:28:55;4.13;;;3.10;;
2320;SDS011;15376;48.540;9.268;2023-02-01T01:31:22;3.57;;;2.93;;
2320;SDS011;15376;48.540;9.268;2023-02-01T01:33:49;3.50;;;3.20;;
2320;SDS011;15376;48.540;9.268;2023-02-01T01:36:15;3.30;;;2.80;;
2320;SDS011;15376;48.540;9.268;2023-02-01T01:38:41;3.47;;;3.17;;
2320;SDS011;15376;48.540;9.268;2023-02-01T01:41:07;3.30;;;3.00;;
2320;SDS011;15376;48.540;9.268;2023-02-01T01:46:25;3.43;;;2.83;;
2320;SDS011;15376;48.540;9.268;2023-02-01T01:49:03;3.57;;;2.90;;
2320;SDS011;15376;48.540;9.268;2023-02-01T01:51:33;3.13;;;2.83;;
2320;SDS011;15376;48.540;9.268;2023-02-01T01:54:17;3.47;;;3.17;;
2320;SDS011;15376;48.540;9.268;2023-02-01T01:56:47;2.70;;;2.50;;
2320;SDS011;15376;48.540;9.268;2023-02-01T01:59:16;3.60;;;3.10;;
2320;SDS011;15376;48.540;9.268;2023-02-01T02:01:42;2.87;;;2.67;;
2320;SDS011;15376;48.540;9.268;2023-02-01T02:04:08;3.90;;;2.80;;
2320;SDS011;15376;48.540;9.268;2023-02-01T02:06:40;2.90;;;2.60;;
2320;SDS011;15376;48.540;9.268;2023-02-01T02:09:12;2.90;;;2.50;;
2320;SDS011;15376;48.540;9.268;2023-02-01T02:11:39;3.80;;;2.90;;
2320;SDS011;15376;48.540;9.268;2023-02-01T02:14:04;3.17;;;2.40;;
2320;SDS011;15376;48.540;9.268;2023-02-01T02:21:52;2.57;;;2.30;;
2320;SDS011;15376;48.540;9.268;2023-02-01T02:27:05;3.10;;;2.90;;
2320;SDS011;15376;48.540;9.268;2023-02-01T02:35:24;2.03;;;1.93;;
2320;SDS011;15376;48.540;9.268;2023-02-01T02:38:33;2.40;;;2.20;;
2320;SDS011;15376;48.540;9.268;2023-02-01T02:43:37;2.30;;;2.10;;
2320;SDS011;15376;48.540;9.268;2023-02-01T02:46:28;3.23;;;2.60;;
2320;SDS011;15376;48.540;9.268;2023-02-01T02:49:27;2.20;;;2.00;;
2320;SDS011;15376;48.540;9.268;2023-02-01T02:52:11;3.17;;;2.87;;
2320;SDS011;15376;48.540;9.268;2023-02-01T02:55:01;3.53;;;2.30;;
2320;SDS011;15376;48.540;9.268;2023-02-01T02:57:36;3.10;;;2.53;;
2320;SDS011;15376;48.540;9.268;2023-02-01T03:00:24;2.53;;;2.33;;
2320;SDS011;15376;48.540;9.268;2023-02-01T03:03:12;2.50;;;2.30;;
2320;SDS011;15376;48.540;9.268;2023-02-01T03:05:56;2.30;;;2.10;;
2320;SDS011;15376;48.540;9.268;2023-02-01T03:08:25;3.20;;;2.33;;
2320;SDS011;15376;48.540;9.268;2023-02-01T03:11:05;2.20;;;2.00;;
2320;SDS011;15376;48.540;9.268;2023-02-01T03:13:37;3.00;;;2.70;;
2320;SDS011;15376;48.540;9.268;2023-02-01T03:16:12;4.90;;;2.10;;
2320;SDS011;15376;48.540;9.268;2023-02-01T03:21:41;2.97;;;2.57;;
2320;SDS011;15376;48.540;9.268;2023-02-01T03:29:38;4.30;;;2.63;;
2320;SDS011;15376;48.540;9.268;2023-02-01T03:32:09;2.90;;;2.70;;
2320;SDS011;15376;48.540;9.268;2023-02-01T03:34:35;3.33;;;2.70;;
2320;SDS011;15376;48.540;9.268;2023-02-01T03:37:02;5.37;;;2.93;;
2320;SDS011;15376;48.540;9.268;2023-02-01T03:39:36;3.00;;;2.70;;
2320;SDS011;15376;48.540;9.268;2023-02-01T03:42:12;2.63;;;2.30;;
2320;SDS011;15376;48.540;9.268;2023-02-01T03:44:50;2.50;;;2.30;;
2320;SDS011;15376;48.540;9.268;2023-02-01T03:47:27;2.53;;;2.33;;
2320;SDS011;15376;48.540;9.268;2023-02-01T03:49:57;2.47;;;2.27;;
2320;SDS011;15376;48.540;9.268;2023-02-01T03:52:30;2.53;;;2.33;;
2320;SDS011;15376;48.540;9.268;2023-02-01T03:55:02;2.40;;;2.20;;
2320;SDS011;15376;48.540;9.268;2023-02-01T03:57:31;3.50;;;2.80;;
2320;SDS011;15376;48.540;9.268;2023-02-01T04:00:04;3.10;;;2.37;;
2320;SDS011;15376;48.540;9.268;2023-02-01T04:02:32;3.00;;;2.53;;
2320;SDS011;15376;48.540;9.268;2023-02-01T04:04:57;2.90;;;2.40;;
2320;SDS011;15376;48.540;9.268;2023-02-01T04:07:23;2.77;;;2.57;;
2320;SDS011;15376;48.540;9.268;2023-02-01T04:09:48;3.03;;;2.77;;
2320;SDS011;15376;48.540;9.268;2023-02-01T04:12:13;3.50;;;2.40;;
2320;SDS011;15376;48.540;9.268;2023-02-01T04:14:39;2.70;;;2.50;;
2320;SDS011;15376;48.540;9.268;2023-02-01T04:17:04;2.57;;;2.37;;
2320;SDS011;15376;48.540;9.268;2023-02-01T04:19:29;2.40;;;2.20;;
2320;SDS011;15376;48.540;9.268;2023-02-01T04:21:55;3.10;;;2.90;;
2320;SDS011;15376;48.540;9.268;2023-02-01T04:24:20;2.17;;;2.07;;
2320;SDS011;15376;48.540;9.268;2023-02-01T04:26:45;7.43;;;2.40;;
2320;SDS011;15376;48.540;9.268;2023-02-01T04:29:10;2.80;;;2.60;;
2320;SDS011;15376;48.540;9.268;2023-02-01T04:31:36;2.30;;;2.10;;
2320;SDS011;15376;48.540;9.268;2023-02-01T04:34:01;2.93;;;2.63;;
2320;SDS011;15376;48.540;9.268;2023-02-01T04:36:27;2.40;;;2.20;;
2320;SDS011;15376;48.540;9.268;2023-02-01T04:38:52;2.50;;;2.30;;
2320;SDS011;15376;48.540;9.268;2023-02-01T04:41:18;2.50;;;2.40;;
2320;SDS011;15376;48.540;9.268;2023-02-01T04:43:47;2.80;;;2.47;;
2320;SDS011;15376;48.540;9.268;2023-02-01T04:46:13;3.00;;;2.40;;
2320;SDS011;15376;48.540;9.268;2023-02-01T04:48:39;2.67;;;2.47;;
2320;SDS011;15376;48.540;9.268;2023-02-01T04:51:04;3.77;;;2.97;;
2320;SDS011;15376;48.540;9.268;2023-02-01T04:53:30;2.33;;;2.23;;
2320;SDS011;15376;48.540;9.268;2023-02-01T04:55:55;2.53;;;2.33;;
2320;SDS011;15376;48.540;9.268;2023-02-01T04:58:21;3.17;;;2.70;;
2320;SDS011;15376;48.540;9.268;2023-02-01T05:00:47;2.70;;;2.43;;
2320;SDS011;15376;48.540;9.268;2023-02-01T05:03:12;3.50;;;3.20;;
2320;SDS011;15376;48.540;9.268;2023-02-01T05:05:37;2.87;;;2.67;;
2320;SDS011;15376;48.540;9.268;2023-02-01T05:08:03;2.60;;;2.40;;
2320;SDS011;15376;48.540;9.268;2023-02-01T05:10:28;2.80;;;2.50;;
2320;SDS011;15376;48.540;9.268;2023-02-01T05:12:53;2.43;;;2.23;;
2320;SDS011;15376;48.540;9.268;2023-02-01T05:15:37;5.40;;;3.00;;
2320;SDS011;15376;48.540;9.268;2023-02-01T05:18:03;3.80;;;2.50;;
2320;SDS011;15376;48.540;9.268;2023-02-01T05:20:29;2.53;;;2.33;;
2320;SDS011;15376;48.540;9.268;2023-02-01T05:22:54;3.27;;;2.80;;
2320;SDS011;15376;48.540;9.268;2023-02-01T05:25:19;2.53;;;2.33;;
2320;SDS011;15376;48.540;9.268;2023-02-01T05:27:45;2.37;;;2.17;;
2320;SDS011;15376;48.540;9.268;2023-02-01T05:30:10;2.40;;;2.20;;
2320;SDS011;15376;48.540;9.268;2023-02-01T05:32:36;2.43;;;2.23;;
2320;SDS011;15376;48.540;9.268;2023-02-01T05:35:01;2.70;;;2.50;;
2320;SDS011;15376;48.540;9.268;2023-02-01T05:37:27;2.53;;;2.20;;
2320;SDS011;15376;48.540;9.268;2023-02-01T05:39:52;2.10;;;1.90;;
2320;SDS011;15376;48.540;9.268;2023-02-01T05:42:18;4.10;;;2.10;;
2320;SDS011;15376;48.540;9.268;2023-02-01T05:44:43;2.37;;;2.17;;
2320;SDS011;15376;48.540;9.268;2023-02-01T05:47:09;2.33;;;2.00;;
2320;SDS011;15376;48.540;9.268;2023-02-01T05:49:34;2.30;;;2.10;;
2320;SDS011;15376;48.540;9.268;2023-02-01T05:52:00;3.10;;;2.27;;
2320;SDS011;15376;48.540;9.268;2023-02-01T05:54:25;2.80;;;2.07;;
2320;SDS011;15376;48.540;9.268;2023-02-01T05:56:51;2.33;;;2.13;;
2320;SDS011;15376;48.540;9.268;2023-02-01T05:59:16;2.20;;;2.00;;
2320;SDS011;15376;48.540;9.268;2023-02-01T06:01:41;2.20;;;2.00;;
2320;SDS011;15376;48.540;9.268;2023-02-01T06:04:07;2.77;;;2.20;;
2320;SDS011;15376;48.540;9.268;2023-02-01T06:06:32;1.87;;;1.73;;
2320;SDS011;15376;48.540;9.268;2023-02-01T06:08:58;1.90;;;1.80;;
2320;SDS011;15376;48.540;9.268;2023-02-01T06:11:24;2.80;;;2.60;;
2320;SDS011;15376;48.540;9.268;2023-02-01T06:13:49;2.90;;;2.07;;
2320;SDS011;15376;48.540;9.268;2023-02-01T06:16:14;2.87;;;2.43;;
2320;SDS011;15376;48.540;9.268;2023-02-01T06:18:40;2.53;;;2.30;;
2320;SDS011;15376;48.540;9.268;2023-02-01T06:21:06;2.50;;;2.30;;
2320;SDS011;15376;48.540;9.268;2023-02-01T06:23:32;2.50;;;2.30;;
2320;SDS011;15376;48.540;9.268;2023-02-01T06:26:01;2.87;;;2.47;;
2320;SDS011;15376;48.540;9.268;2023-02-01T06:28:32;2.43;;;2.23;;
2320;SDS011;15376;48.540;9.268;2023-02-01T06:31:02;3.27;;;2.93;;
2320;SDS011;15376;48.540;9.268;2023-02-01T06:33:32;2.10;;;2.00;;
2320;SDS011;15376;48.540;9.268;2023-02-01T06:36:01;5.80;;;2.90;;
2320;SDS011;15376;48.540;9.268;2023-02-01T06:38:28;2.47;;;2.27;;
2320;SDS011;15376;48.540;9.268;2023-02-01T06:40:55;2.70;;;2.50;;
2320;SDS011;15376;48.540;9.268;2023-02-01T06:43:22;3.70;;;2.37;;
2320;SDS011;15376;48.540;9.268;2023-02-01T06:45:48;2.50;;;2.30;;
2320;SDS011;15376;48.540;9.268;2023-02-01T06:48:14;2.47;;;2.27;;
2320;SDS011;15376;48.540;9.268;2023-02-01T06:50:39;4.83;;;2.50;;
2320;SDS011;15376;48.540;9.268;2023-02-01T06:53:05;2.60;;;2.40;;
2320;SDS011;15376;48.540;9.268;2023-02-01T06:55:30;2.50;;;2.30;;
2320;SDS011;15376;48.540;9.268;2023-02-01T06:57:55;3.00;;;2.03;;
2320;SDS011;15376;48.540;9.268;2023-02-01T07:00:22;2.90;;;2.70;;
2320;SDS011;15376;48.540;9.268;2023-02-01T07:02:48;2.97;;;2.67;;
2320;SDS011;15376;48.540;9.268;2023-02-01T07:05:13;2.70;;;2.40;;
2320;SDS011;15376;48.540;9.268;2023-02-01T07:07:38;3.43;;;2.40;;
2320;SDS011;15376;48.540;9.268;2023-02-01T07:10:04;2.63;;;2.30;;
2320;SDS011;15376;48.540;9.268;2023-02-01T07:12:30;3.30;;;3.00;;
2320;SDS011;15376;48.540;9.268;2023-02-01T07:14:55;2.90;;;2.70;;
2320;SDS011;15376;48.540;9.268;2023-02-01T07:17:21;2.87;;;2.67;;
2320;SDS011;15376;48.540;9.268;2023-02-01T07:19:47;3.00;;;2.80;;
2320;SDS011;15376;48.540;9.268;2023-02-01T07:22:12;4.43;;;3.23;;
2320;SDS011;15376;48.540;9.268;2023-02-01T07:24:37;6.90;;;3.87;;
2320;SDS011;15376;48.540;9.268;2023-02-01T07:27:03;2.83;;;2.53;;
2320;SDS011;15376;48.540;9.268;2023-02-01T07:29:28;3.63;;;3.10;;
2320;SDS011;15376;48.540;9.268;2023-02-01T07:31:53;13.43;;;7.83;;
2320;SDS011;15376;48.540;9.268;2023-02-01T07:34:19;2.60;;;2.40;;
2320;SDS011;15376;48.540;9.268;2023-02-01T07:36:44;3.40;;;2.83;;
2320;SDS011;15376;48.540;9.268;2023-02-01T07:39:10;2.43;;;2.23;;
2320;SDS011;15376;48.540;9.268;2023-02-01T07:41:35;5.47;;;3.67;;
2320;SDS011;15376;48.540;9.268;2023-02-01T07:44:01;5.90;;;3.90;;
2320;SDS011;15376;48.540;9.268;2023-02-01T07:46:26;3.33;;;3.03;;
2320;SDS011;15376;48.540;9.268;2023-02-01T07:48:51;3.73;;;3.43;;
2320;SDS011;15376;48.540;9.268;2023-02-01T07:51:17;3.30;;;3.03;;
2320;SDS011;15376;48.540;9.268;2023-02-01T07:53:43;4.80;;;3.80;;
2320;SDS011;15376;48.540;9.268;2023-02-01T07:56:12;3.67;;;3.20;;
2320;SDS011;15376;48.540;9.268;2023-02-01T07:58:39;2.70;;;2.50;;
2320;SDS011;15376;48.540;9.268;2023-02-01T08:01:05;2.97;;;2.60;;
2320;SDS011;15376;48.540;9.268;2023-02-01T08:03:49;2.80;;;2.60;;
2320;SDS011;15376;48.540;9.268;2023-02-01T08:06:16;4.80;;;3.20;;
2320;SDS011;15376;48.540;9.268;2023-02-01T08:08:41;5.57;;;3.50;;
2320;SDS011;15376;48.540;9.268;2023-02-01T08:11:09;5.80;;;4.10;;
2320;SDS011;15376;48.540;9.268;2023-02-01T08:13:35;3.53;;;3.20;;
2320;SDS011;15376;48.540;9.268;2023-02-01T08:16:04;2.60;;;2.40;;
2320;SDS011;15376;48.540;9.268;2023-02-01T08:18:31;2.67;;;2.47;;
2320;SDS011;15376;48.540;9.268;2023-02-01T08:20:57;3.87;;;2.77;;
2320;SDS011;15376;48.540;9.268;2023-02-01T08:23:30;2.90;;;2.70;;
2320;SDS011;15376;48.540;9.268;2023-02-01T08:26:03;8.50;;;4.90;;
2320;SDS011;15376;48.540;9.268;2023-02-01T08:28:43;3.00;;;2.70;;
2320;SDS011;15376;48.540;9.268;2023-02-01T08:31:12;2.70;;;2.50;;
2320;SDS011;15376;48.540;9.268;2023-02-01T08:33:39;3.10;;;2.90;;
2320;SDS011;15376;48.540;9.268;2023-02-01T08:36:06;4.97;;;3.67;;
2320;SDS011;15376;48.540;9.268;2023-02-01T08:38:32;5.80;;;4.37;;
2320;SDS011;15376;48.540;9.268;2023-02-01T08:41:04;3.07;;;2.87;;
2320;SDS011;15376;48.540;9.268;2023-02-01T08:43:34;11.57;;;6.47;;
2320;SDS011;15376;48.540;9.268;2023-02-01T08:46:00;5.30;;;3.20;;
2320;SDS011;15376;48.540;9.268;2023-02-01T08:48:26;2.77;;;2.57;;
2320;SDS011;15376;48.540;9.268;2023-02-01T08:50:51;2.17;;;2.00;;
2320;SDS011;15376;48.540;9.268;2023-02-01T08:53:16;2.33;;;2.13;;
2320;SDS011;15376;48.540;9.268;2023-02-01T08:55:42;3.00;;;2.53;;
2320;SDS011;15376;48.540;9.268;2023-02-01T08:58:07;4.47;;;2.20;;
2320;SDS011;15376;48.540;9.268;2023-02-01T09:00:33;3.70;;;2.77;;
2320;SDS011;15376;48.540;9.268;2023-02-01T09:02:58;5.37;;;4.17;;
2320;SDS011;15376;48.540;9.268;2023-02-01T09:05:24;3.00;;;2.77;;
2320;SDS011;15376;48.540;9.268;2023-02-01T09:07:51;4.63;;;2.93;;
2320;SDS011;15376;48.540;9.268;2023-02-01T09:10:17;2.87;;;2.67;;
2320;SDS011;15376;48.540;9.268;2023-02-01T09:12:43;2.60;;;2.40;;
2320;SDS011;15376;48.540;9.268;2023-02-01T09:15:08;4.43;;;3.80;;
2320;SDS011;15376;48.540;9.268;2023-02-01T09:17:34;3.40;;;2.63;;
2320;SDS011;15376;48.540;9.268;2023-02-01T09:19:59;3.23;;;2.93;;
2320;SDS011;15376;48.540;9.268;2023-02-01T09:22:25;3.20;;;2.50;;
2320;SDS011;15376;48.540;9.268;2023-02-01T09:24:50;4.53;;;2.93;;
2320;SDS011;15376;48.540;9.268;2023-02-01T09:27:17;3.13;;;2.90;;
2320;SDS011;15376;48.540;9.268;2023-02-01T09:29:42;4.30;;;2.83;;
2320;SDS011;15376;48.540;9.268;2023-02-01T09:32:07;3.73;;;2.80;;
2320;SDS011;15376;48.540;9.268;2023-02-01T09:34:33;6.27;;;2.50;;
2320;SDS011;15376;48.540;9.268;2023-02-01T09:36:58;2.60;;;2.30;;
2320;SDS011;15376;48.540;9.268;2023-02-01T09:39:24;2.10;;;2.00;;
2320;SDS011;15376;48.540;9.268;2023-02-01T09:47:11;2.97;;;2.40;;
2320;SDS011;15376;48.540;9.268;2023-02-01T09:49:39;3.80;;;2.70;;
2320;SDS011;15376;48.540;9.268;2023-02-01T09:52:15;3.83;;;2.50;;
2320;SDS011;15376;48.540;9.268;2023-02-01T09:54:49;2.90;;;2.53;;
2320;SDS011;15376;48.540;9.268;2023-02-01T09:57:23;3.40;;;2.63;;
2320;SDS011;15376;48.540;9.268;2023-02-01T10:00:03;5.10;;;2.63;;
2320;SDS011;15376;48.540;9.268;2023-02-01T10:02:32;6.23;;;2.50;;
2320;SDS011;15376;48.540;9.268;2023-02-01T10:05:03;7.53;;;2.73;;
2320;SDS011;15376;48.540;9.268;2023-02-01T10:10:25;11.30;;;4.40;;
2320;SDS011;15376;48.540;9.268;2023-02-01T10:12:59;7.20;;;3.33;;
2320;SDS011;15376;48.540;9.268;2023-02-01T10:28:37;7.73;;;3.90;;
2320;SDS011;15376;48.540;9.268;2023-02-01T10:31:04;6.93;;;3.67;;
2320;SDS011;15376;48.540;9.268;2023-02-01T10:33:35;8.30;;;2.10;;
2320;SDS011;15376;48.540;9.268;2023-02-01T10:38:45;7.20;;;3.20;;
2320;SDS011;15376;48.540;9.268;2023-02-01T10:41:53;3.97;;;2.50;;
2320;SDS011;15376;48.540;9.268;2023-02-01T10:44:02;7.63;;;3.73;;
2320;SDS011;15376;48.540;9.268;2023-02-01T10:46:31;6.03;;;2.70;;
2320;SDS011;15376;48.540;9.268;2023-02-01T10:48:57;8.20;;;3.60;;
2320;SDS011;15376;48.540;9.268;2023-02-01T10:51:28;8.13;;;2.93;;
2320;SDS011;15376;48.540;9.268;2023-02-01T10:54:08;11.40;;;3.47;;
2320;SDS011;15376;48.540;9.268;2023-02-01T10:56:45;6.60;;;3.00;;
2320;SDS011;15376;48.540;9.268;2023-02-01T10:59:23;4.43;;;3.20;;
2320;SDS011;15376;48.540;9.268;2023-02-01T11:01:50;6.23;;;2.73;;
2320;SDS011;15376;48.540;9.268;2023-02-01T11:04:26;8.23;;;3.03;;
2320;SDS011;15376;48.540;9.268;2023-02-01T11:07:12;9.20;;;2.67;;
2320;SDS011;15376;48.540;9.268;2023-02-01T11:09:48;8.20;;;3.57;;
2320;SDS011;15376;48.540;9.268;2023-02-01T11:15:01;7.10;;;2.67;;
2320;SDS011;15376;48.540;9.268;2023-02-01T11:17:34;6.70;;;3.87;;
2320;SDS011;15376;48.540;9.268;2023-02-01T11:20:06;6.70;;;2.90;;
2320;SDS011;15376;48.540;9.268;2023-02-01T11:22:54;5.33;;;3.17;;
2320;SDS011;15376;48.540;9.268;2023-02-01T11:25:21;9.27;;;2.97;;
2320;SDS011;15376;48.540;9.268;2023-02-01T11:27:49;3.20;;;2.80;;
2320;SDS011;15376;48.540;9.268;2023-02-01T11:30:16;12.23;;;3.60;;
2320;SDS011;15376;48.540;9.268;2023-02-01T11:32:46;11.00;;;6.57;;
2320;SDS011;15376;48.540;9.268;2023-02-01T11:35:13;19.43;;;13.20;;
2320;SDS011;15376;48.540;9.268;2023-02-01T11:37:43;9.63;;;3.80;;
2320;SDS011;15376;48.540;9.268;2023-02-01T11:40:33;5.13;;;4.10;;
2320;SDS011;15376;48.540;9.268;2023-02-01T11:45:43;3.63;;;3.33;;
2320;SDS011;15376;48.540;9.268;2023-02-01T11:48:30;6.93;;;3.90;;
2320;SDS011;15376;48.540;9.268;2023-02-01T11:56:39;7.53;;;3.97;;
2320;SDS011;15376;48.540;9.268;2023-02-01T12:05:03;4.97;;;3.07;;
2320;SDS011;15376;48.540;9.268;2023-02-01T12:10:09;6.97;;;3.07;;
2320;SDS011;15376;48.540;9.268;2023-02-01T12:12:48;5.53;;;2.70;;
2320;SDS011;15376;48.540;9.268;2023-02-01T12:15:30;8.37;;;3.63;;
2320;SDS011;15376;48.540;9.268;2023-02-01T12:24:01;4.80;;;3.07;;
2320;SDS011;15376;48.540;9.268;2023-02-01T12:36:24;10.23;;;3.10;;
2320;SDS011;15376;48.540;9.268;2023-02-01T12:38:54;7.37;;;2.73;;
2320;SDS011;15376;48.540;9.268;2023-02-01T12:41:45;6.87;;;2.83;;
2320;SDS011;15376;48.540;9.268;2023-02-01T12:47:28;3.80;;;2.40;;
2320;SDS011;15376;48.540;9.268;2023-02-01T12:50:06;5.93;;;2.87;;
2320;SDS011;15376;48.540;9.268;2023-02-01T12:52:47;10.33;;;3.40;;
2320;SDS011;15376;48.540;9.268;2023-02-01T12:57:46;9.10;;;6.23;;
2320;SDS011;15376;48.540;9.268;2023-02-01T13:00:18;5.97;;;2.80;;
2320;SDS011;15376;48.540;9.268;2023-02-01T13:02:50;5.27;;;2.97;;
2320;SDS011;15376;48.540;9.268;2023-02-01T13:05:27;10.83;;;3.90;;
2320;SDS011;15376;48.540;9.268;2023-02-01T13:08:10;9.00;;;2.87;;
2320;SDS011;15376;48.540;9.268;2023-02-01T13:10:46;16.53;;;7.17;;
2320;SDS011;15376;48.540;9.268;2023-02-01T13:13:28;14.00;;;7.73;;
2320;SDS011;15376;48.540;9.268;2023-02-01T13:16:12;17.63;;;8.60;;
2320;SDS011;15376;48.540;9.268;2023-02-01T13:18:47;13.30;;;4.10;;
2320;SDS011;15376;48.540;9.268;2023-02-01T13:21:21;13.97;;;8.07;;
2320;SDS011;15376;48.540;9.268;2023-02-01T13:23:50;5.70;;;3.17;;
2320;SDS011;15376;48.540;9.268;2023-02-01T13:26:17;6.53;;;3.03;;
2320;SDS011;15376;48.540;9.268;2023-02-01T13:40:30;10.10;;;5.23;;
2320;SDS011;15376;48.540;9.268;2023-02-01T13:43:05;6.90;;;3.43;;
2320;SDS011;15376;48.540;9.268;2023-02-01T13:45:36;8.10;;;5.03;;
2320;SDS011;15376;48.540;9.268;2023-02-01T13:48:14;5.13;;;3.07;;
2320;SDS011;15376;48.540;9.268;2023-02-01T13:51:00;6.77;;;4.47;;
2320;SDS011;15376;48.540;9.268;2023-02-01T13:53:30;9.97;;;6.03;;
2320;SDS011;15376;48.540;9.268;2023-02-01T13:58:31;11.17;;;3.70;;
2320;SDS011;15376;48.540;9.268;2023-02-01T14:03:47;10.03;;;5.10;;
2320;SDS011;15376;48.540;9.268;2023-02-01T14:16:39;9.47;;;4.43;;
2320;SDS011;15376;48.540;9.268;2023-02-01T14:19:22;16.40;;;8.43;;
2320;SDS011;15376;48.540;9.268;2023-02-01T14:21:53;13.07;;;7.83;;
2320;SDS011;15376;48.540;9.268;2023-02-01T14:24:24;15.30;;;7.70;;
2320;SDS011;15376;48.540;9.268;2023-02-01T14:27:01;9.93;;;6.07;;
2320;SDS011;15376;48.540;9.268;2023-02-01T14:29:44;5.73;;;5.10;;
2320;SDS011;15376;48.540;9.268;2023-02-01T14:32:23;13.30;;;7.03;;
2320;SDS011;15376;48.540;9.268;2023-02-01T14:34:55;8.67;;;3.50;;
2320;SDS011;15376;48.540;9.268;2023-02-01T14:37:26;14.07;;;5.80;;
2320;SDS011;15376;48.540;9.268;2023-02-01T14:39:59;10.87;;;4.50;;
2320;SDS011;15376;48.540;9.268;2023-02-01T14:47:43;16.53;;;11.57;;
2320;SDS011;15376;48.540;9.268;2023-02-01T14:52:50;10.40;;;4.70;;
2320;SDS011;15376;48.540;9.268;2023-02-01T14:57:57;11.57;;;4.40;;
2320;SDS011;15376;48.540;9.268;2023-02-01T15:00:27;9.57;;;4.20;;
2320;SDS011;15376;48.540;9.268;2023-02-01T15:02:54;15.77;;;4.63;;
2320;SDS011;15376;48.540;9.268;2023-02-01T15:05:36;11.07;;;3.77;;
2320;SDS011;15376;48.540;9.268;2023-02-01T15:08:06;5.40;;;4.10;;
2320;SDS011;15376;48.540;9.268;2023-02-01T15:10:48;6.53;;;4.20;;
2320;SDS011;15376;48.540;9.268;2023-02-01T15:13:21;10.03;;;5.47;;
2320;SDS011;15376;48.540;9.268;2023-02-01T15:16:01;7.10;;;3.60;;
2320;SDS011;15376;48.540;9.268;2023-02-01T15:18:35;7.67;;;3.50;;
2320;SDS011;15376;48.540;9.268;2023-02-01T15:21:02;5.70;;;3.20;;
2320;SDS011;15376;48.540;9.268;2023-02-01T15:23:29;5.73;;;3.30;;
2320;SDS011;15376;48.540;9.268;2023-02-01T15:25:55;5.23;;;3.30;;
2320;SDS011;15376;48.540;9.268;2023-02-01T15:28:20;10.20;;;4.17;;
2320;SDS011;15376;48.540;9.268;2023-02-01T15:30:57;5.03;;;3.07;;
2320;SDS011;15376;48.540;9.268;2023-02-01T15:33:25;8.30;;;3.13;;
2320;SDS011;15376;48.540;9.268;2023-02-01T15:35:52;5.90;;;4.10;;
2320;SDS011;15376;48.540;9.268;2023-02-01T15:41:16;8.00;;;3.60;;
2320;SDS011;15376;48.540;9.268;2023-02-01T15:48:56;22.13;;;10.27;;
2320;SDS011;15376;48.540;9.268;2023-02-01T15:51:23;7.00;;;3.77;;
2320;SDS011;15376;48.540;9.268;2023-02-01T15:56:25;6.03;;;4.10;;
2320;SDS011;15376;48.540;9.268;2023-02-01T15:58:54;7.40;;;4.23;;
2320;SDS011;15376;48.540;9.268;2023-02-01T16:01:23;17.57;;;9.70;;
2320;SDS011;15376;48.540;9.268;2023-02-01T16:03:49;8.33;;;4.87;;
2320;SDS011;15376;48.540;9.268;2023-02-01T16:06:30;12.07;;;6.87;;
2320;SDS011;15376;48.540;9.268;2023-02-01T16:11:26;18.27;;;6.70;;
2320;SDS011;15376;48.540;9.268;2023-02-01T16:13:56;18.73;;;10.70;;
2320;SDS011;15376;48.540;9.268;2023-02-01T16:16:26;6.97;;;4.10;;
2320;SDS011;15376;48.540;9.268;2023-02-01T16:18:53;8.77;;;3.77;;
2320;SDS011;15376;48.540;9.268;2023-02-01T16:21:18;9.43;;;3.87;;
2320;SDS011;15376;48.540;9.268;2023-02-01T16:23:47;16.53;;;7.50;;
2320;SDS011;15376;48.540;9.268;2023-02-01T16:26:14;7.17;;;4.43;;
2320;SDS011;15376;48.540;9.268;2023-02-01T16:28:40;13.90;;;6.70;;
2320;SDS011;15376;48.540;9.268;2023-02-01T16:31:05;11.47;;;5.20;;
2320;SDS011;15376;48.540;9.268;2023-02-01T16:33:44;22.90;;;9.87;;
2320;SDS011;15376;48.540;9.268;2023-02-01T16:36:11;7.30;;;3.57;;
2320;SDS011;15376;48.540;9.268;2023-02-01T16:38:36;9.27;;;4.47;;
2320;SDS011;15376;48.540;9.268;2023-02-01T16:41:01;11.17;;;6.10;;
2320;SDS011;15376;48.540;9.268;2023-02-01T16:43:30;14.83;;;5.87;;
2320;SDS011;15376;48.540;9.268;2023-02-01T16:45:57;16.30;;;6.33;;
2320;SDS011;15376;48.540;9.268;2023-02-01T16:48:25;14.23;;;5.30;;
2320;SDS011;15376;48.540;9.268;2023-02-01T16:50:55;8.70;;;5.60;;
2320;SDS011;15376;48.540;9.268;2023-02-01T16:53:23;12.83;;;5.30;;
2320;SDS011;15376;48.540;9.268;2023-02-01T16:55:49;11.27;;;6.13;;
2320;SDS011;15376;48.540;9.268;2023-02-01T16:58:17;9.00;;;4.40;;
2320;SDS011;15376;48.540;9.268;2023-02-01T17:00:43;11.40;;;6.10;;
2320;SDS011;15376;48.540;9.268;2023-02-01T17:03:13;14.10;;;6.37;;
2320;SDS011;15376;48.540;9.268;2023-02-01T17:05:51;9.53;;;5.20;;
2320;SDS011;15376;48.540;9.268;2023-02-01T17:08:22;10.83;;;4.00;;
2320;SDS011;15376;48.540;9.268;2023-02-01T17:10:53;13.53;;;4.10;;
2320;SDS011;15376;48.540;9.268;2023-02-01T17:13:18;9.53;;;4.63;;
2320;SDS011;15376;48.540;9.268;2023-02-01T17:15:51;8.77;;;4.13;;
2320;SDS011;15376;48.540;9.268;2023-02-01T17:18:19;12.27;;;4.13;;
2320;SDS011;15376;48.540;9.268;2023-02-01T17:20:45;6.53;;;3.53;;
2320;SDS011;15376;48.540;9.268;2023-02-01T17:23:12;8.10;;;3.17;;
2320;SDS011;15376;48.540;9.268;2023-02-01T17:25:39;5.60;;;3.90;;
2320;SDS011;15376;48.540;9.268;2023-02-01T17:28:04;7.73;;;3.80;;
2320;SDS011;15376;48.540;9.268;2023-02-01T17:30:30;8.40;;;3.83;;
2320;SDS011;15376;48.540;9.268;2023-02-01T17:32:56;9.10;;;3.73;;
2320;SDS011;15376;48.540;9.268;2023-02-01T17:35:22;5.97;;;3.40;;
2320;SDS011;15376;48.540;9.268;2023-02-01T17:37:50;5.10;;;2.57;;